Lincoln Park, Illinois
Current Conditions -  °F | °C
As of 9:53 AM on Thursday 27 Nov 2014 (Local Time) from KMDW Reporting Station
Broken Clouds Broken Clouds  
Wind Chill: 17°   Ceiling: 1800
Heat Index: 28°   Visibility: 10mi
Dew Point: 20°   Wind: 15mph
Humidity: 72%   Direction: 310°NW
Pressure: 30.33"   Gusts: NA
Location:  41.9225°N, 87.651°W
Report Text: KMDW 271553Z 31013KT 10SM BKN018 BKN100 M02/M07 A3033 RMK AO2 SLP283 T10221067
Loading
Personal Weather Stations






























Interactive Weather Map New forecast layout! Learn more

10-Day Weather Forecast

Advertisements
Track Severe Weather on mobile